Time;durP1;ratioP1;P1;durP2;ratioP2;P2;SDS_P1;SDS_P2;PMS_P1;PMS_P2;Temp;Humidity;BMP_temperature;BMP_pressure;BME280_temperature;BME280_humidity;BME280_pressure;Samples;Min_cycle;Max_cycle;Signal;HPM_P1;HPM_P2
2024/01/31 00:01:07;;;;;;;11.50;4.60;;;;;;;8.58;95.84;102796.38;5048458;28;20037;-62
2024/01/31 00:03:33;;;;;;;7.70;4.78;;;;;;;8.56;96.43;102792.88;5046745;28;20037;-63
2024/01/31 00:05:58;;;;;;;10.20;4.90;;;;;;;8.57;96.28;102797.22;5045117;28;20033;-63
2024/01/31 00:08:24;;;;;;;8.23;4.40;;;;;;;8.55;95.81;102788.53;5045705;28;20090;-62
2024/01/31 00:10:49;;;;;;;7.72;5.63;;;;;;;8.54;95.99;102790.22;5047377;28;20036;-63
2024/01/31 00:13:14;;;;;;;8.50;5.10;;;;;;;8.54;96.12;102797.13;5047977;28;20554;-62
2024/01/31 00:15:40;;;;;;;10.35;5.55;;;;;;;8.53;96.43;102792.78;5049252;28;20040;-63
2024/01/31 00:18:06;;;;;;;9.52;5.53;;;;;;;8.52;96.00;102789.31;5041686;28;20116;-62
2024/01/31 00:20:32;;;;;;;12.75;6.15;;;;;;;8.51;96.59;102792.75;5047105;28;20619;-62
2024/01/31 00:22:57;;;;;;;9.88;5.90;;;;;;;8.49;97.19;102793.50;5047467;28;20229;-63
2024/01/31 00:25:22;;;;;;;8.32;5.43;;;;;;;8.47;97.01;102787.44;5047316;28;20522;-62
2024/01/31 00:27:48;;;;;;;12.57;6.22;;;;;;;8.44;96.92;102792.47;5055626;28;20037;-63
2024/01/31 00:30:14;;;;;;;10.57;6.95;;;;;;;8.44;97.46;102787.31;5071194;28;20032;-63
2024/01/31 00:32:39;;;;;;;11.43;6.50;;;;;;;8.43;97.95;102794.16;5069180;28;20090;-62
2024/01/31 00:35:05;;;;;;;10.18;6.72;;;;;;;8.42;98.23;102792.44;5064112;28;20041;-62
2024/01/31 00:37:31;;;;;;;10.07;7.15;;;;;;;8.42;97.80;102788.97;5053815;28;20053;-63
2024/01/31 00:39:56;;;;;;;11.05;6.95;;;;;;;8.41;98.08;102797.53;5047612;28;20492;-63
2024/01/31 00:42:21;;;;;;;14.32;7.15;;;;;;;8.40;98.49;102806.97;5048161;28;20228;-63
2024/01/31 00:44:47;;;;;;;13.45;7.75;;;;;;;8.40;98.38;102795.78;5048136;28;20027;-63
2024/01/31 00:47:13;;;;;;;10.25;6.60;;;;;;;8.39;98.49;102783.72;5047437;28;20048;-66
2024/01/31 00:49:38;;;;;;;11.93;7.53;;;;;;;8.36;99.04;102784.50;5040974;28;20556;-63
2024/01/31 00:52:04;;;;;;;12.23;7.65;;;;;;;8.36;99.37;102788.78;5054008;28;20120;-63
2024/01/31 00:54:30;;;;;;;11.63;7.20;;;;;;;8.34;99.42;102786.13;5066551;28;20056;-63
2024/01/31 00:56:55;;;;;;;14.48;8.02;;;;;;;8.32;98.76;102785.22;5066411;28;20281;-63
2024/01/31 00:59:21;;;;;;;13.82;7.63;;;;;;;8.32;99.72;102782.66;5066169;28;20032;-64
2024/01/31 01:01:46;;;;;;;14.18;6.88;;;;;;;8.32;99.31;102789.50;5072137;28;20110;-63
2024/01/31 01:04:11;;;;;;;11.95;7.88;;;;;;;8.32;99.58;102784.34;5056052;28;20116;-63
2024/01/31 01:06:40;;;;;;;11.70;6.88;;;;;;;8.32;99.13;102781.78;5045110;28;20040;-63
2024/01/31 01:09:05;;;;;;;13.73;7.57;;;;;;;8.31;99.45;102787.72;5042288;28;20495;-63
2024/01/31 01:11:31;;;;;;;13.23;7.60;;;;;;;8.30;99.87;102786.00;5046979;28;20040;-62
2024/01/31 01:13:56;;;;;;;12.63;7.10;;;;;;;8.28;99.41;102785.06;5069070;28;20046;-62
2024/01/31 01:16:22;;;;;;;11.35;7.22;;;;;;;8.25;99.85;102785.84;5066593;28;20059;-62
2024/01/31 01:18:47;;;;;;;12.30;7.18;;;;;;;8.26;100.00;102791.88;5064047;28;20495;-62
2024/01/31 01:21:12;;;;;;;14.15;8.50;;;;;;;8.25;100.00;102795.28;5059655;28;20048;-62
2024/01/31 01:23:38;;;;;;;13.65;7.80;;;;;;;8.25;100.00;102785.00;5038928;28;20087;-62
2024/01/31 01:26:03;;;;;;;10.98;8.10;;;;;;;8.24;100.00;102799.56;5046605;28;20044;-62
2024/01/31 01:28:29;;;;;;;13.93;8.02;;;;;;;8.21;100.00;102807.19;5041660;28;20072;-63
2024/01/31 01:30:54;;;;;;;12.80;7.80;;;;;;;8.21;100.00;102798.56;5040102;28;20042;-62
2024/01/31 01:33:20;;;;;;;13.13;7.95;;;;;;;8.21;100.00;102796.00;5043725;28;20276;-62
2024/01/31 01:35:45;;;;;;;14.95;8.27;;;;;;;8.20;100.00;102804.53;5043616;28;20071;-62
2024/01/31 01:38:10;;;;;;;14.77;8.60;;;;;;;8.19;100.00;102805.38;5067740;28;20063;-62
2024/01/31 01:40:42;;;;;;;12.07;8.10;;;;;;;8.19;100.00;102802.81;5066124;28;20403;-63
2024/01/31 01:43:18;;;;;;;14.95;7.68;;;;;;;8.17;100.00;102804.44;5053798;28;20041;-62
2024/01/31 01:45:44;;;;;;;13.05;6.90;;;;;;;8.16;100.00;102805.28;5052798;28;20029;-63
2024/01/31 01:48:14;;;;;;;18.52;8.60;;;;;;;8.16;100.00;102807.84;5067189;28;20540;-63
2024/01/31 01:50:39;;;;;;;16.00;8.23;;;;;;;8.16;100.00;102802.72;5065273;28;20040;-62
2024/01/31 01:53:05;;;;;;;13.45;8.07;;;;;;;8.14;100.00;102801.75;5065241;28;20158;-63
2024/01/31 01:55:31;;;;;;;13.90;8.15;;;;;;;8.14;100.00;102812.94;5053260;28;20033;-63
2024/01/31 01:57:56;;;;;;;17.60;9.18;;;;;;;8.13;100.00;102807.75;5047666;28;20474;-64
2024/01/31 02:00:24;;;;;;;13.85;8.20;;;;;;;8.11;100.00;102810.25;5048291;28;20045;-63
2024/01/31 02:02:50;;;;;;;11.02;7.70;;;;;;;8.10;100.00;102807.66;5044920;28;20037;-63
2024/01/31 02:05:16;;;;;;;14.98;7.95;;;;;;;8.12;100.00;102816.28;5044252;28;20186;-64
2024/01/31 02:07:42;;;;;;;15.70;8.85;;;;;;;8.11;100.00;102818.00;5045802;28;20045;-63
2024/01/31 02:10:08;;;;;;;12.77;7.95;;;;;;;8.11;100.00;102809.38;5045842;28;20033;-63
2024/01/31 02:12:33;;;;;;;14.55;8.38;;;;;;;8.10;100.00;102816.22;5050001;28;20052;-64
2024/01/31 02:14:59;;;;;;;13.88;8.05;;;;;;;8.11;100.00;102815.41;5044036;28;20029;-64
2024/01/31 02:17:24;;;;;;;15.27;9.00;;;;;;;8.11;100.00;102814.53;5066621;28;20028;-64
2024/01/31 02:19:50;;;;;;;18.60;8.25;;;;;;;8.08;100.00;102812.72;5063654;28;20429;-65
2024/01/31 02:22:19;;;;;;;12.20;7.72;;;;;;;8.08;100.00;102817.00;5065215;28;20046;-63
2024/01/31 02:24:45;;;;;;;12.57;7.32;;;;;;;8.06;100.00;102821.25;5058512;28;20033;-63
2024/01/31 02:27:11;;;;;;;15.63;8.15;;;;;;;8.05;100.00;102819.47;5044772;28;20074;-66
2024/01/31 02:29:40;;;;;;;17.40;9.07;;;;;;;8.06;100.00;102824.69;5043716;28;20071;-64
2024/01/31 02:32:06;;;;;;;16.58;9.07;;;;;;;8.06;100.00;102819.53;5048118;28;20098;-64
2024/01/31 02:34:32;;;;;;;15.88;9.50;;;;;;;8.05;100.00;102822.94;5048874;28;20106;-65
2024/01/31 02:36:57;;;;;;;16.88;9.52;;;;;;;8.05;100.00;102827.19;5050012;28;20037;-64
2024/01/31 02:39:24;;;;;;;15.63;9.68;;;;;;;8.02;100.00;102826.28;5065682;28;20407;-63
2024/01/31 02:41:52;;;;;;;16.08;9.07;;;;;;;8.01;100.00;102823.66;5063407;28;20055;-64
2024/01/31 02:44:19;;;;;;;19.65;10.25;;;;;;;8.00;100.00;102825.34;5044766;28;20411;-63
2024/01/31 02:46:44;;;;;;;16.33;9.95;;;;;;;8.00;100.00;102824.47;5049422;28;20060;-64
2024/01/31 02:49:09;;;;;;;16.67;10.55;;;;;;;7.99;100.00;102825.28;5055312;28;20051;-65
2024/01/31 02:51:35;;;;;;;17.20;10.35;;;;;;;7.98;100.00;102828.72;5060659;28;20082;-69
2024/01/31 02:54:00;;;;;;;17.80;10.13;;;;;;;7.95;100.00;102820.88;5046052;28;20026;-69
2024/01/31 02:56:26;;;;;;;19.23;11.45;;;;;;;7.94;100.00;102829.41;5044706;28;20041;-68
2024/01/31 02:58:51;;;;;;;19.15;12.38;;;;;;;7.93;100.00;102827.66;5052030;28;20043;-68
2024/01/31 03:01:16;;;;;;;17.90;11.38;;;;;;;7.94;100.00;102826.84;5062693;28;20041;-69
2024/01/31 03:03:42;;;;;;;21.17;11.32;;;;;;;7.94;100.00;102829.41;5069635;28;20094;-68
2024/01/31 03:06:07;;;;;;;18.30;11.40;;;;;;;7.93;100.00;102827.66;5065945;28;20044;-69
2024/01/31 03:08:33;;;;;;;20.63;11.70;;;;;;;7.92;100.00;102825.91;5067321;28;20116;-69
2024/01/31 03:10:58;;;;;;;21.45;12.25;;;;;;;7.90;100.00;102831.00;5069880;28;20098;-69
2024/01/31 03:13:23;;;;;;;17.70;10.85;;;;;;;7.86;100.00;102833.44;5057611;28;20111;-69
2024/01/31 03:15:49;;;;;;;21.17;12.10;;;;;;;7.84;100.00;102832.47;5049911;28;20500;-69
2024/01/31 03:18:14;;;;;;;19.52;11.50;;;;;;;7.84;100.00;102824.75;5051845;28;20029;-69
2024/01/31 03:20:39;;;;;;;20.77;13.00;;;;;;;7.82;100.00;102834.13;5050417;28;20663;-69
2024/01/31 03:23:05;;;;;;;23.20;11.82;;;;;;;7.82;100.00;102828.97;5047464;28;20063;-69
2024/01/31 03:25:30;;;;;;;21.92;11.65;;;;;;;7.81;100.00;102837.50;5043892;28;20055;-69
2024/01/31 03:27:55;;;;;;;20.75;12.27;;;;;;;7.81;100.00;102838.38;5045355;28;20106;-69
2024/01/31 03:30:21;;;;;;;20.95;11.73;;;;;;;7.78;100.00;102833.13;5051379;28;20040;-69
2024/01/31 03:32:46;;;;;;;22.33;11.57;;;;;;;7.77;100.00;102839.09;5051430;28;20505;-70
2024/01/31 03:35:12;;;;;;;21.55;12.57;;;;;;;7.75;100.00;102840.75;5047800;28;20670;-69
2024/01/31 03:37:37;;;;;;;25.20;14.00;;;;;;;7.76;100.00;102836.47;5048242;28;20507;-69
2024/01/31 03:40:06;;;;;;;22.58;12.93;;;;;;;7.75;100.00;102835.59;5047726;28;20496;-70
2024/01/31 03:42:32;;;;;;;20.33;12.13;;;;;;;7.74;100.00;102839.00;5050870;28;20033;-68
2024/01/31 03:44:57;;;;;;;23.10;13.38;;;;;;;7.74;100.00;102841.59;5056329;28;20033;-68
2024/01/31 03:47:23;;;;;;;21.33;13.13;;;;;;;7.75;100.00;102840.75;5069389;28;20115;-69
2024/01/31 03:49:49;;;;;;;21.20;12.93;;;;;;;7.75;100.00;102840.75;5070040;28;20035;-72
2024/01/31 03:52:15;;;;;;;21.77;13.15;;;;;;;7.74;100.00;102844.16;5067569;28;20067;-70
2024/01/31 03:54:40;;;;;;;24.65;13.55;;;;;;;7.72;100.00;102848.34;5068043;28;20574;-69
2024/01/31 03:57:06;;;;;;;21.30;12.85;;;;;;;7.69;100.00;102839.63;5066472;28;20028;-69
2024/01/31 03:59:31;;;;;;;22.95;14.23;;;;;;;7.68;100.00;102843.06;5050971;28;20040;-69
2024/01/31 04:01:56;;;;;;;23.83;13.50;;;;;;;7.68;100.00;102846.50;5055258;28;20043;-68
2024/01/31 04:04:22;;;;;;;26.35;13.70;;;;;;;7.67;100.00;102841.28;5060150;28;20139;-69
2024/01/31 04:06:47;;;;;;;24.70;14.95;;;;;;;7.66;100.00;102842.09;5063992;28;20060;-69
2024/01/31 04:09:13;;;;;;;26.15;15.45;;;;;;;7.66;100.00;102847.25;5066274;28;20499;-68
2024/01/31 04:11:38;;;;;;;22.02;13.32;;;;;;;7.66;100.00;102840.41;5071818;28;20612;-69
2024/01/31 04:14:04;;;;;;;25.33;14.98;;;;;;;7.65;100.00;102841.25;5051637;28;20128;-69
2024/01/31 04:16:29;;;;;;;26.45;14.55;;;;;;;7.66;100.00;102845.56;5050496;28;20059;-69
2024/01/31 04:18:54;;;;;;;25.52;14.20;;;;;;;7.66;100.00;102837.84;5054232;28;20048;-69
2024/01/31 04:21:22;;;;;;;27.33;16.08;;;;;;;7.65;100.00;102837.78;5051048;28;20032;-68
2024/01/31 04:23:47;;;;;;;29.08;16.67;;;;;;;7.65;100.00;102836.09;5069785;28;20377;-68
2024/01/31 04:26:13;;;;;;;27.65;16.42;;;;;;;7.63;100.00;102837.72;5069114;28;20078;-69
2024/01/31 04:28:38;;;;;;;26.55;15.88;;;;;;;7.62;100.00;102838.56;5066204;28;20039;-63
2024/01/31 04:31:04;;;;;;;26.75;15.57;;;;;;;7.60;100.00;102837.63;5062700;28;20053;-63
2024/01/31 04:33:29;;;;;;;26.40;14.77;;;;;;;7.60;100.00;102827.31;5068399;28;20510;-63
2024/01/31 04:35:55;;;;;;;24.58;14.10;;;;;;;7.59;100.00;102828.16;5064115;28;20463;-63
2024/01/31 04:38:20;;;;;;;24.08;14.05;;;;;;;7.58;100.00;102822.94;5069113;28;20017;-63
2024/01/31 04:40:45;;;;;;;27.33;15.70;;;;;;;7.56;100.00;102815.19;5066640;28;20033;-63
2024/01/31 04:43:15;;;;;;;25.25;15.57;;;;;;;7.54;100.00;102814.22;5069586;28;20033;-63
2024/01/31 04:45:41;;;;;;;29.85;15.88;;;;;;;7.51;100.00;102808.97;5068835;28;20047;-63
2024/01/31 04:48:06;;;;;;;26.05;15.52;;;;;;;7.53;100.00;102798.75;5065573;28;20040;-63
2024/01/31 04:50:32;;;;;;;27.85;16.27;;;;;;;7.50;100.00;102798.63;5065432;28;20025;-63
2024/01/31 04:52:57;;;;;;;29.92;15.88;;;;;;;7.50;100.00;102793.50;5066778;28;20683;-63
2024/01/31 04:55:22;;;;;;;28.52;16.73;;;;;;;7.53;100.00;102788.44;5068363;28;20496;-63
2024/01/31 04:57:48;;;;;;;27.23;16.27;;;;;;;7.52;100.00;102784.13;5066459;28;20035;-63
2024/01/31 05:00:17;;;;;;;28.00;15.30;;;;;;;7.51;100.00;102784.94;5068299;28;20029;-63
2024/01/31 05:02:42;;;;;;;24.58;15.02;;;;;;;7.50;100.00;102773.78;5065460;28;20039;-63
2024/01/31 05:05:08;;;;;;;29.70;17.10;;;;;;;7.53;100.00;102791.03;5067895;28;20048;-63
2024/01/31 05:07:33;;;;;;;27.58;15.75;;;;;;;7.53;100.00;102791.03;5063707;28;20106;-64
2024/01/31 05:09:59;;;;;;;27.52;16.08;;;;;;;7.53;100.00;102798.75;5068621;28;20028;-64
2024/01/31 05:12:24;;;;;;;27.55;15.27;;;;;;;7.53;100.00;102801.31;5069004;28;20036;-64
2024/01/31 05:14:50;;;;;;;28.60;15.75;;;;;;;7.52;100.00;102797.88;5068343;28;20020;-64
2024/01/31 05:17:15;;;;;;;25.85;15.45;;;;;;;7.51;100.00;102801.25;5049705;28;20032;-64
2024/01/31 05:19:42;;;;;;;27.50;15.27;;;;;;;7.53;100.00;102809.03;5046396;28;20094;-64
2024/01/31 05:22:07;;;;;;;27.73;15.93;;;;;;;7.54;100.00;102803.06;5044927;28;20033;-63
2024/01/31 05:24:33;;;;;;;24.08;15.05;;;;;;;7.54;100.00;102805.63;5044750;28;20089;-63
2024/01/31 05:27:03;;;;;;;24.88;14.50;;;;;;;7.57;100.00;102816.91;5044865;28;20033;-64
2024/01/31 05:29:31;;;;;;;27.05;15.60;;;;;;;7.57;100.00;102813.47;5060916;28;20020;-63
2024/01/31 05:31:57;;;;;;;26.20;15.02;;;;;;;7.58;100.00;102810.97;5065810;28;20106;-63
2024/01/31 05:34:26;;;;;;;25.48;15.90;;;;;;;7.56;100.00;102812.59;5051534;28;20566;-64
2024/01/31 05:36:52;;;;;;;30.63;16.40;;;;;;;7.56;100.00;102814.28;5042008;28;20033;-63
2024/01/31 05:39:17;;;;;;;26.58;15.32;;;;;;;7.56;100.00;102815.19;5048823;28;20457;-63
2024/01/31 05:41:43;;;;;;;30.65;16.65;;;;;;;7.54;100.00;102811.66;5046694;28;20056;-64
2024/01/31 05:44:09;;;;;;;28.15;15.98;;;;;;;7.54;100.00;102810.78;5047950;28;20525;-64
2024/01/31 05:46:35;;;;;;;27.30;16.08;;;;;;;7.54;100.00;102814.22;5049908;28;20468;-63
2024/01/31 05:49:02;;;;;;;23.85;14.73;;;;;;;7.53;100.00;102809.91;5050390;28;20124;-63
2024/01/31 05:51:30;;;;;;;25.95;14.93;;;;;;;7.54;100.00;102813.34;5048085;28;20444;-63
2024/01/31 05:53:56;;;;;;;27.10;16.63;;;;;;;7.53;100.00;102820.22;5047188;28;20646;-63
2024/01/31 05:56:21;;;;;;;24.90;15.70;;;;;;;7.53;100.00;102820.22;5048493;28;20029;-62
2024/01/31 05:58:47;;;;;;;27.67;15.35;;;;;;;7.49;100.00;102805.47;5045957;28;20496;-63
2024/01/31 06:01:13;;;;;;;27.90;15.93;;;;;;;7.47;100.00;102799.41;5041174;28;20037;-63
2024/01/31 06:03:38;;;;;;;28.52;16.63;;;;;;;7.46;100.00;102805.34;5038892;28;20056;-63
2024/01/31 06:06:04;;;;;;;31.08;17.48;;;;;;;7.44;100.00;102815.59;5041313;28;20064;-65
2024/01/31 06:08:29;;;;;;;30.83;17.02;;;;;;;7.43;100.00;102812.97;5062243;28;20057;-62
2024/01/31 06:11:03;;;;;;;29.42;17.02;;;;;;;7.41;100.00;102823.22;5041136;28;20048;-63
2024/01/31 06:13:31;;;;;;;36.38;19.10;;;;;;;7.42;100.00;102826.63;5046913;28;20248;-62
2024/01/31 06:15:57;;;;;;;31.80;17.52;;;;;;;7.40;100.00;102824.03;5047027;28;20045;-64
2024/01/31 06:18:23;;;;;;;33.95;18.70;;;;;;;7.41;100.00;102828.34;5041216;28;20467;-62
2024/01/31 06:20:51;;;;;;;33.75;18.05;;;;;;;7.41;100.00;102827.47;5042360;28;20177;-63
2024/01/31 06:23:17;;;;;;;34.85;18.95;;;;;;;7.39;100.00;102822.25;5040408;28;20416;-62
2024/01/31 06:25:42;;;;;;;39.00;19.15;;;;;;;7.38;100.00;102820.53;5040385;28;20029;-63
2024/01/31 06:28:08;;;;;;;34.80;20.25;;;;;;;7.37;100.00;102817.88;5040149;28;20452;-63
2024/01/31 06:30:41;;;;;;;38.75;20.42;;;;;;;7.36;100.00;102824.72;5044781;28;20533;-63
2024/01/31 06:33:07;;;;;;;39.30;20.52;;;;;;;7.36;100.00;102828.97;5044939;28;20080;-63
2024/01/31 06:35:34;;;;;;;36.13;19.63;;;;;;;7.35;100.00;102825.56;5040276;28;20026;-62
2024/01/31 06:37:59;;;;;;;35.92;20.10;;;;;;;7.35;100.00;102828.13;5038064;28;20060;-63
2024/01/31 06:40:25;;;;;;;38.50;20.15;;;;;;;7.36;100.00;102828.97;5046524;28;20091;-63
2024/01/31 06:42:51;;;;;;;36.15;19.75;;;;;;;7.34;100.00;102826.38;5042639;28;20037;-63
2024/01/31 06:45:17;;;;;;;36.97;19.65;;;;;;;7.32;100.00;102824.56;5049675;28;20130;-62
2024/01/31 06:47:42;;;;;;;36.05;19.98;;;;;;;7.32;100.00;102828.00;5045494;28;20512;-59
2024/01/31 06:50:08;;;;;;;37.45;20.85;;;;;;;7.30;100.00;102831.31;5046263;28;20075;-70
2024/01/31 06:52:33;;;;;;;32.08;17.55;;;;;;;7.31;100.00;102830.50;5045481;28;20031;-69
2024/01/31 06:55:00;;;;;;;38.20;20.63;;;;;;;7.30;100.00;102833.88;5040077;28;20041;-68
2024/01/31 06:57:26;;;;;;;34.70;19.20;;;;;;;7.31;100.00;102831.41;5046685;28;20053;-70
2024/01/31 06:59:51;;;;;;;35.97;19.10;;;;;;;7.33;100.00;102828.88;5048107;28;20643;-69
2024/01/31 07:02:17;;;;;;;40.92;19.88;;;;;;;7.32;100.00;102828.00;5048729;28;20041;-70
2024/01/31 07:04:42;;;;;;;33.65;18.67;;;;;;;7.33;100.00;102834.88;5057997;28;20051;-69
2024/01/31 07:07:07;;;;;;;38.97;20.83;;;;;;;7.33;100.00;102832.31;5054830;28;20041;-70
2024/01/31 07:09:33;;;;;;;40.17;20.55;;;;;;;7.33;100.00;102832.31;5043542;28;20145;-69
2024/01/31 07:11:59;;;;;;;37.90;21.23;;;;;;;7.32;100.00;102840.00;5044519;28;20158;-68
2024/01/31 07:14:25;;;;;;;35.13;18.95;;;;;;;7.32;100.00;102833.16;5045954;28;20033;-70
2024/01/31 07:16:50;;;;;;;34.85;19.38;;;;;;;7.31;100.00;102839.13;5064945;28;20024;-69
2024/01/31 07:19:15;;;;;;;36.10;19.38;;;;;;;7.32;100.00;102837.41;5065772;28;20521;-70
2024/01/31 07:21:41;;;;;;;39.70;20.38;;;;;;;7.31;100.00;102838.22;5064714;28;20032;-69
2024/01/31 07:24:07;;;;;;;37.95;20.92;;;;;;;7.32;100.00;102838.31;5062216;28;20040;-69
2024/01/31 07:26:32;;;;;;;40.17;20.08;;;;;;;7.33;100.00;102850.31;5063318;28;20454;-68
2024/01/31 07:28:58;;;;;;;38.25;19.98;;;;;;;7.34;100.00;102848.63;5062814;28;20056;-68
2024/01/31 07:31:23;;;;;;;34.65;18.73;;;;;;;7.36;100.00;102847.88;5068564;28;20083;-69
2024/01/31 07:33:49;;;;;;;38.53;20.40;;;;;;;7.38;100.00;102847.94;5064361;28;20056;-69
2024/01/31 07:36:14;;;;;;;36.33;19.77;;;;;;;7.40;100.00;102848.88;5065116;28;20036;-69
2024/01/31 07:38:44;;;;;;;34.63;19.42;;;;;;;7.41;100.00;102848.06;5060599;28;20037;-67
2024/01/31 07:41:10;;;;;;;33.72;18.10;;;;;;;7.41;100.00;102845.47;5066744;28;20040;-68
2024/01/31 07:43:36;;;;;;;34.75;19.23;;;;;;;7.42;100.00;102839.50;5073521;28;20047;-68
2024/01/31 07:46:01;;;;;;;33.00;19.25;;;;;;;7.44;100.00;102838.75;5079486;28;20471;-68
2024/01/31 07:48:26;;;;;;;32.03;18.90;;;;;;;7.46;100.00;102841.38;5066130;28;20428;-69
2024/01/31 07:50:52;;;;;;;36.25;19.35;;;;;;;7.45;100.00;102837.03;5056138;28;20037;-69
2024/01/31 07:53:17;;;;;;;30.75;17.60;;;;;;;7.47;100.00;102832.84;5048873;28;20036;-68
2024/01/31 07:55:43;;;;;;;35.45;18.88;;;;;;;7.47;100.00;102840.56;5044874;28;20028;-69
2024/01/31 07:58:08;;;;;;;33.67;18.60;;;;;;;7.49;100.00;102836.34;5050824;28;20029;-68
2024/01/31 08:00:33;;;;;;;35.90;19.38;;;;;;;7.50;100.00;102838.13;5051931;28;20036;-69
2024/01/31 08:02:59;;;;;;;35.22;19.63;;;;;;;7.52;100.00;102833.88;5050594;28;20057;-69
2024/01/31 08:05:24;;;;;;;37.35;19.60;;;;;;;7.53;100.00;102833.09;5051437;28;20084;-70
2024/01/31 08:07:50;;;;;;;35.28;18.75;;;;;;;7.53;100.00;102824.47;5061224;28;20495;-69
2024/01/31 08:10:15;;;;;;;33.13;19.50;;;;;;;7.56;100.00;102825.47;5052475;28;20082;-68
2024/01/31 08:12:42;;;;;;;37.10;19.65;;;;;;;7.57;100.00;102818.59;5050762;28;20503;-69
2024/01/31 08:15:08;;;;;;;35.33;19.02;;;;;;;7.56;100.00;102822.91;5049506;28;20056;-67
2024/01/31 08:17:34;;;;;;;41.00;19.45;;;;;;;7.60;100.00;102822.16;5042436;28;20048;-69
2024/01/31 08:20:00;;;;;;;31.85;18.80;;;;;;;7.60;100.00;102822.16;5064550;28;20112;-69
2024/01/31 08:22:25;;;;;;;35.35;18.23;;;;;;;7.63;100.00;102816.25;5068451;28;20044;-67
2024/01/31 08:24:50;;;;;;;34.95;17.13;;;;;;;7.67;100.00;102815.56;5059352;28;20057;-69
2024/01/31 08:27:18;;;;;;;33.00;17.55;;;;;;;7.70;100.00;102818.25;5047710;28;20064;-67
2024/01/31 08:29:44;;;;;;;43.88;19.77;;;;;;;7.70;100.00;102816.53;5047214;28;20040;-69
2024/01/31 08:32:09;;;;;;;29.70;17.80;;;;;;;7.74;100.00;102825.25;5045671;28;21534;-69
2024/01/31 08:34:35;;;;;;;31.95;17.05;;;;;;;7.76;100.00;102826.19;5044648;28;20045;-68
2024/01/31 08:37:01;;;;;;;32.33;17.95;;;;;;;7.78;100.00;102815.13;5048558;28;20504;-68
2024/01/31 08:39:27;;;;;;;32.45;18.05;;;;;;;7.80;100.00;102826.34;5050454;28;20045;-69
2024/01/31 08:41:52;;;;;;;31.80;18.00;;;;;;;7.83;100.00;102836.75;5065957;28;20093;-69
2024/01/31 08:44:17;;;;;;;34.22;17.02;;;;;;;7.86;100.00;102846.28;5048570;28;20045;-69
2024/01/31 08:46:43;;;;;;;29.50;16.50;;;;;;;7.90;100.00;102846.44;5046443;28;20364;-69
2024/01/31 08:49:08;;;;;;;26.85;15.98;;;;;;;7.91;100.00;102855.94;5042334;28;20190;-69
2024/01/31 08:51:35;;;;;;;31.00;17.20;;;;;;;7.93;100.00;102850.81;5045812;28;20162;-69
2024/01/31 08:54:01;;;;;;;28.02;15.70;;;;;;;7.95;100.00;102855.19;5046931;28;20426;-68
2024/01/31 08:56:26;;;;;;;25.75;15.23;;;;;;;7.97;100.00;102848.44;5048348;28;20024;-69
2024/01/31 08:58:52;;;;;;;26.23;14.82;;;;;;;7.98;100.00;102857.03;5066534;28;20522;-69
2024/01/31 09:01:17;;;;;;;22.95;14.90;;;;;;;8.01;100.00;102859.72;5065793;28;20068;-70
2024/01/31 09:03:43;;;;;;;25.48;14.35;;;;;;;8.04;100.00;102853.78;5065883;28;20461;-69
2024/01/31 09:06:08;;;;;;;24.75;14.13;;;;;;;8.07;100.00;102859.91;5068414;28;20514;-67
2024/01/31 09:08:33;;;;;;;23.48;14.27;;;;;;;8.10;100.00;102856.59;5070594;28;20061;-67
2024/01/31 09:10:59;;;;;;;22.30;13.02;;;;;;;8.11;100.00;102866.94;5065268;28;20067;-68
2024/01/31 09:13:24;;;;;;;20.02;12.23;;;;;;;8.10;100.00;102874.63;5070104;28;20504;-67
2024/01/31 09:15:50;;;;;;;24.38;14.05;;;;;;;8.10;100.00;102862.59;5069712;28;20060;-67
2024/01/31 09:18:15;;;;;;;21.98;13.98;;;;;;;8.11;100.00;102866.94;5069589;28;20036;-67
2024/01/31 09:20:40;;;;;;;24.65;13.05;;;;;;;8.11;100.00;102872.06;5069172;28;20099;-68
2024/01/31 09:23:06;;;;;;;22.35;13.70;;;;;;;8.11;100.00;102887.53;5052882;28;20443;-68
2024/01/31 09:25:31;;;;;;;21.50;11.98;;;;;;;8.11;100.00;102887.53;5047927;28;20033;-67
2024/01/31 09:27:57;;;;;;;23.98;12.52;;;;;;;8.13;100.00;102893.59;5048554;28;20116;-69
2024/01/31 09:30:22;;;;;;;24.67;12.85;;;;;;;8.17;100.00;102886.88;5050479;28;20056;-68
2024/01/31 09:32:47;;;;;;;31.98;13.30;;;;;;;8.18;100.00;102883.47;5047254;28;20041;-68
2024/01/31 09:35:13;;;;;;;24.27;13.43;;;;;;;8.17;100.00;102889.44;5045930;28;20950;-68
2024/01/31 09:37:38;;;;;;;28.50;15.07;;;;;;;8.18;100.00;102884.38;5049621;28;20064;-67
2024/01/31 09:40:05;;;;;;;23.98;13.77;;;;;;;8.17;100.00;102895.47;5042408;28;20041;-68
2024/01/31 09:42:30;;;;;;;24.80;13.60;;;;;;;8.17;100.00;102894.59;5049918;28;20590;-68
2024/01/31 09:44:57;;;;;;;25.55;14.32;;;;;;;8.20;100.00;102897.28;5057580;28;20043;-69
2024/01/31 09:47:27;;;;;;;23.60;12.80;;;;;;;8.20;100.00;102882.72;5038988;28;20029;-69
2024/01/31 09:49:56;;;;;;;21.83;12.52;;;;;;;8.22;100.00;102887.94;5031837;28;20067;-68
2024/01/31 09:52:28;;;;;;;21.52;12.45;;;;;;;8.22;100.00;102891.34;5035435;28;20064;-68
2024/01/31 09:55:00;;;;;;;25.55;13.65;;;;;;;8.23;100.00;102887.97;5031115;28;20194;-68
2024/01/31 09:57:27;;;;;;;27.10;13.65;;;;;;;8.27;100.00;102888.97;5034998;28;20041;-67
2024/01/31 09:59:55;;;;;;;24.42;13.48;;;;;;;8.27;100.00;102879.53;5032000;28;20029;-67
2024/01/31 10:02:21;;;;;;;22.08;12.10;;;;;;;8.29;100.00;102872.72;5036044;28;20044;-68
2024/01/31 10:04:49;;;;;;;22.30;12.55;;;;;;;8.34;100.00;102868.59;5033492;28;20163;-67
2024/01/31 10:07:25;;;;;;;20.85;12.45;;;;;;;8.35;100.00;102865.19;5041465;28;20067;-67
2024/01/31 10:09:53;;;;;;;26.40;13.55;;;;;;;8.36;100.00;102863.50;5051559;28;20400;-67
2024/01/31 10:12:20;;;;;;;21.52;11.85;;;;;;;8.38;100.00;102855.00;5055995;28;20037;-67
2024/01/31 10:14:51;;;;;;;16.80;10.38;;;;;;;8.44;100.00;102857.78;5055871;28;20056;-67
2024/01/31 10:17:17;;;;;;;19.50;11.85;;;;;;;8.46;100.00;102850.97;5055523;28;20033;-67
2024/01/31 10:19:43;;;;;;;16.33;10.60;;;;;;;8.47;100.00;102845.00;5050522;28;20048;-67
2024/01/31 10:22:08;;;;;;;16.83;11.05;;;;;;;8.53;100.00;102839.16;5054397;28;20051;-67
2024/01/31 10:24:34;;;;;;;18.58;10.68;;;;;;;8.50;98.20;102819.34;5050298;28;20041;-68
2024/01/31 10:27:02;;;;;;;16.05;9.05;;;;;;;8.53;96.88;102819.44;5034555;28;20048;-66
2024/01/31 10:29:28;;;;;;;22.38;9.23;;;;;;;8.55;96.13;102810.03;5042801;28;20036;-68
2024/01/31 10:31:54;;;;;;;15.95;9.05;;;;;;;8.59;95.37;102808.44;5039165;28;20033;-69
2024/01/31 10:34:22;;;;;;;18.35;10.13;;;;;;;8.56;95.85;102811.81;5038136;28;20087;-68
2024/01/31 10:36:49;;;;;;;16.17;9.27;;;;;;;8.64;96.62;102808.56;5035275;28;20753;-68
2024/01/31 10:39:16;;;;;;;15.40;9.80;;;;;;;8.67;96.57;102808.66;5037243;28;20116;-68
2024/01/31 10:41:42;;;;;;;16.40;9.57;;;;;;;8.70;95.19;102801.03;5044607;28;20072;-68
2024/01/31 10:44:10;;;;;;;15.02;8.60;;;;;;;8.68;94.04;102771.75;5039794;28;20043;-68
2024/01/31 10:46:36;;;;;;;12.52;7.40;;;;;;;8.70;92.11;102749.47;5037772;28;20044;-67
2024/01/31 10:49:01;;;;;;;11.98;6.88;;;;;;;8.72;92.04;102737.53;5047537;28;20797;-67
2024/01/31 10:51:29;;;;;;;11.98;7.20;;;;;;;8.73;90.30;102731.53;5054528;28;20496;-68
2024/01/31 10:53:56;;;;;;;9.07;6.40;;;;;;;8.77;90.90;102738.53;5059680;28;20039;-66
2024/01/31 10:56:24;;;;;;;12.48;7.55;;;;;;;8.76;89.57;102724.75;5056712;28;20530;-67
2024/01/31 10:58:50;;;;;;;10.90;6.72;;;;;;;8.79;89.44;102722.28;5063394;28;20557;-67
2024/01/31 11:01:17;;;;;;;8.55;5.50;;;;;;;8.79;88.75;102708.50;5056731;28;20593;-67
2024/01/31 11:03:46;;;;;;;9.25;6.03;;;;;;;8.84;86.50;102694.91;5054264;28;20041;-67
2024/01/31 11:06:11;;;;;;;7.53;5.07;;;;;;;8.95;86.86;102688.38;5049543;28;20059;-68
2024/01/31 11:08:40;;;;;;;10.40;5.18;;;;;;;9.04;85.74;102668.00;5038483;28;20491;-68